createdAt,value
2017-12-19T00:00:32.252Z,2.10
2017-12-19T00:02:59.723Z,2.10
2017-12-19T00:05:27.186Z,2.10
2017-12-19T00:07:55.033Z,2.00
2017-12-19T00:10:26.240Z,2.00
2017-12-19T00:12:54.476Z,2.00
2017-12-19T00:15:22.071Z,2.00
2017-12-19T00:17:49.592Z,2.00
2017-12-19T00:20:17.087Z,2.00
2017-12-19T00:22:45.329Z,2.10
2017-12-19T00:25:15.579Z,2.10
2017-12-19T00:27:43.043Z,2.00
2017-12-19T00:30:10.553Z,2.00
2017-12-19T00:32:37.998Z,2.00
2017-12-19T00:35:05.474Z,2.10
2017-12-19T00:37:32.947Z,2.10
2017-12-19T00:40:00.403Z,2.00
2017-12-19T00:42:27.862Z,2.00
2017-12-19T00:44:56.090Z,1.90
2017-12-19T00:47:23.621Z,2.00
2017-12-19T00:49:51.099Z,1.90
2017-12-19T00:52:18.571Z,2.00
2017-12-19T00:54:46.071Z,2.00
2017-12-19T00:57:14.312Z,2.10
2017-12-19T00:59:41.791Z,2.00
2017-12-19T01:02:10.336Z,2.10
2017-12-19T01:04:37.883Z,2.10
2017-12-19T01:07:05.398Z,2.10
2017-12-19T01:09:33.724Z,2.10
2017-12-19T01:12:01.183Z,2.10
2017-12-19T01:14:28.644Z,2.10
2017-12-19T01:16:56.092Z,2.10
2017-12-19T01:19:23.562Z,2.00
2017-12-19T01:21:51.003Z,2.10
2017-12-19T01:24:18.482Z,2.10
2017-12-19T01:26:45.939Z,2.00
2017-12-19T01:29:13.401Z,2.10
2017-12-19T01:31:41.645Z,2.00
2017-12-19T01:34:09.111Z,2.00
2017-12-19T01:36:36.567Z,2.00
2017-12-19T01:39:04.034Z,2.00
2017-12-19T01:41:31.504Z,2.00
2017-12-19T01:43:58.980Z,2.00
2017-12-19T01:46:26.440Z,2.00
2017-12-19T01:48:54.700Z,2.10
2017-12-19T01:51:22.183Z,2.00
2017-12-19T01:53:49.674Z,2.10
2017-12-19T01:56:17.267Z,2.10
2017-12-19T01:58:44.781Z,2.10
2017-12-19T02:01:12.332Z,2.10
2017-12-19T02:03:39.806Z,2.10
2017-12-19T02:06:08.087Z,2.10
2017-12-19T02:08:35.539Z,2.10
2017-12-19T02:11:03.006Z,2.10
2017-12-19T02:13:30.458Z,2.20
2017-12-19T02:15:57.928Z,2.10
2017-12-19T02:18:25.430Z,2.10
2017-12-19T02:20:53.667Z,2.10
2017-12-19T02:23:21.178Z,2.20
2017-12-19T02:25:48.659Z,2.10
2017-12-19T02:28:16.128Z,2.20
2017-12-19T02:30:44.411Z,2.20
2017-12-19T02:33:11.904Z,2.20
2017-12-19T02:35:39.423Z,2.20
2017-12-19T02:38:06.890Z,2.20
2017-12-19T02:40:34.347Z,2.20
2017-12-19T02:43:13.879Z,2.20
2017-12-19T02:45:41.465Z,2.20
2017-12-19T02:48:09.759Z,2.20
2017-12-19T02:50:37.239Z,2.20
2017-12-19T02:53:04.744Z,2.20
2017-12-19T02:55:32.215Z,2.20
2017-12-19T02:58:00.524Z,2.20
2017-12-19T03:00:27.992Z,2.20
2017-12-19T03:02:55.472Z,2.30
2017-12-19T03:05:22.921Z,2.30
2017-12-19T03:07:50.379Z,2.30
2017-12-19T03:10:17.838Z,2.30
2017-12-19T03:12:45.292Z,2.30
2017-12-19T03:15:12.751Z,2.40
2017-12-19T03:17:40.208Z,2.40
2017-12-19T03:20:07.650Z,2.30
2017-12-19T03:22:35.108Z,2.30
2017-12-19T03:25:02.558Z,2.30
2017-12-19T03:27:30.049Z,2.30
2017-12-19T03:29:57.501Z,2.30
2017-12-19T03:32:25.883Z,2.30
2017-12-19T03:34:54.168Z,2.30
2017-12-19T03:37:22.759Z,2.30
2017-12-19T03:39:50.298Z,2.30
2017-12-19T03:42:18.597Z,2.30
2017-12-19T03:44:46.116Z,2.30
2017-12-19T03:47:13.588Z,2.20
2017-12-19T03:49:41.810Z,2.20
2017-12-19T03:52:09.267Z,2.20
2017-12-19T03:54:37.294Z,2.20
2017-12-19T03:57:05.612Z,2.20
2017-12-19T03:59:33.091Z,2.20
2017-12-19T04:02:00.559Z,2.20
2017-12-19T04:04:28.020Z,2.20
2017-12-19T04:06:55.482Z,2.20
2017-12-19T04:09:22.975Z,2.20
2017-12-19T04:11:50.449Z,2.20
2017-12-19T04:14:17.906Z,2.20
2017-12-19T04:16:45.397Z,2.20
2017-12-19T04:19:13.783Z,2.20
2017-12-19T04:21:41.247Z,2.10
2017-12-19T04:24:08.739Z,2.10
2017-12-19T04:26:36.212Z,2.10
2017-12-19T04:29:03.707Z,2.20
2017-12-19T04:31:31.177Z,2.20
2017-12-19T04:33:58.696Z,2.10
2017-12-19T04:36:26.203Z,2.10
2017-12-19T04:38:53.659Z,2.20
2017-12-19T04:41:21.120Z,2.20
2017-12-19T04:43:49.343Z,2.10
2017-12-19T04:46:16.799Z,2.10
2017-12-19T04:48:44.269Z,2.10
2017-12-19T04:51:11.734Z,2.10
2017-12-19T04:53:39.199Z,2.10
2017-12-19T04:56:06.691Z,2.10
2017-12-19T04:58:34.175Z,2.10
2017-12-19T05:01:01.672Z,2.10
2017-12-19T05:03:29.960Z,2.10
2017-12-19T05:05:57.551Z,2.10
2017-12-19T05:08:25.068Z,2.10
2017-12-19T05:10:53.399Z,2.10
2017-12-19T05:13:20.947Z,2.10
2017-12-19T05:15:48.410Z,2.10
2017-12-19T05:18:15.861Z,2.10
2017-12-19T05:20:43.330Z,2.20
2017-12-19T05:23:10.790Z,2.20
2017-12-19T05:25:40.194Z,2.20
2017-12-19T05:28:07.654Z,2.20
2017-12-19T05:30:35.315Z,2.20
2017-12-19T05:33:04.021Z,2.20
2017-12-19T05:35:31.516Z,2.20
2017-12-19T05:37:58.966Z,2.20
2017-12-19T05:40:26.442Z,2.20
2017-12-19T05:42:55.517Z,2.20
2017-12-19T05:45:23.078Z,2.20
2017-12-19T05:47:50.567Z,2.20
2017-12-19T05:50:18.047Z,2.20
2017-12-19T05:52:45.498Z,2.20
2017-12-19T05:55:12.954Z,2.20
2017-12-19T05:57:40.435Z,2.20
2017-12-19T06:00:08.662Z,2.20
2017-12-19T06:02:36.120Z,2.20
2017-12-19T06:05:03.646Z,2.20
2017-12-19T06:07:31.090Z,2.20
2017-12-19T06:09:59.307Z,2.20
2017-12-19T06:12:26.751Z,2.10
2017-12-19T06:14:54.212Z,2.20
2017-12-19T06:17:21.692Z,2.20
2017-12-19T06:19:49.154Z,2.20
2017-12-19T06:22:16.627Z,2.20
2017-12-19T06:24:44.851Z,2.30
2017-12-19T06:27:12.306Z,2.20
2017-12-19T06:29:39.761Z,2.20
2017-12-19T06:32:07.525Z,2.30
2017-12-19T06:34:35.084Z,2.20
2017-12-19T06:37:02.543Z,2.20
2017-12-19T06:39:29.993Z,2.20
2017-12-19T06:41:57.463Z,2.30
2017-12-19T06:44:24.909Z,2.30
2017-12-19T06:46:52.598Z,2.20
2017-12-19T06:49:20.053Z,2.20
2017-12-19T06:51:47.507Z,2.20
2017-12-19T06:54:14.957Z,2.20
2017-12-19T06:56:42.417Z,2.20
2017-12-19T06:59:10.773Z,2.20
2017-12-19T07:01:38.236Z,2.20
2017-12-19T07:04:05.684Z,2.20
2017-12-19T07:06:33.243Z,2.20
2017-12-19T07:09:00.773Z,2.20
2017-12-19T07:11:28.230Z,2.10
2017-12-19T07:13:55.678Z,2.10
2017-12-19T07:16:23.898Z,2.10
2017-12-19T07:18:51.347Z,2.10
2017-12-19T07:21:18.804Z,2.10
2017-12-19T07:23:46.259Z,2.10
2017-12-19T07:26:13.724Z,2.10
2017-12-19T07:28:41.173Z,2.10
2017-12-19T07:31:08.631Z,2.10
2017-12-19T07:33:36.098Z,2.10
2017-12-19T07:36:03.684Z,2.10
2017-12-19T07:38:31.927Z,2.20
2017-12-19T07:40:59.385Z,2.20
2017-12-19T07:43:26.839Z,2.20
2017-12-19T07:45:54.305Z,2.20
2017-12-19T07:48:21.771Z,2.30
2017-12-19T07:50:49.227Z,2.30
2017-12-19T07:53:16.700Z,2.30
2017-12-19T07:55:44.138Z,2.30
2017-12-19T07:58:11.813Z,2.30
2017-12-19T08:00:39.258Z,2.30
2017-12-19T08:03:06.728Z,2.30
2017-12-19T08:05:34.182Z,2.30
2017-12-19T08:08:01.634Z,2.30
2017-12-19T08:10:29.082Z,2.30
2017-12-19T08:12:56.542Z,2.30
2017-12-19T08:15:24.083Z,2.30
2017-12-19T08:17:51.538Z,2.30
2017-12-19T08:20:18.998Z,2.30
2017-12-19T08:22:46.468Z,2.40
2017-12-19T08:25:13.902Z,2.40
2017-12-19T08:27:41.364Z,2.50
2017-12-19T08:30:08.806Z,2.50
2017-12-19T08:32:36.285Z,2.60
2017-12-19T08:35:03.719Z,2.70
2017-12-19T08:37:31.175Z,2.80
2017-12-19T08:39:58.635Z,2.80
2017-12-19T08:42:26.087Z,2.80
2017-12-19T08:44:53.556Z,2.80
2017-12-19T08:47:21.039Z,2.70
2017-12-19T08:49:48.490Z,2.80
2017-12-19T08:52:15.947Z,2.80
2017-12-19T08:54:44.101Z,2.80
2017-12-19T08:57:11.558Z,2.80
2017-12-19T08:59:39.023Z,2.80
2017-12-19T09:02:06.475Z,2.80
2017-12-19T09:04:33.939Z,2.80
2017-12-19T09:07:01.402Z,2.80
2017-12-19T09:09:29.068Z,2.70
2017-12-19T09:11:56.571Z,2.70
2017-12-19T09:14:24.060Z,2.70
2017-12-19T09:16:51.483Z,2.70
2017-12-19T09:19:18.953Z,2.80
2017-12-19T09:21:46.411Z,2.90
2017-12-19T09:24:13.862Z,2.90
2017-12-19T09:26:41.974Z,2.90
2017-12-19T09:29:10.220Z,2.90
2017-12-19T09:31:37.696Z,2.90
2017-12-19T09:34:05.159Z,2.90
2017-12-19T09:36:32.619Z,2.90
2017-12-19T09:39:00.867Z,3.00
2017-12-19T09:41:28.331Z,3.00
2017-12-19T09:43:55.803Z,3.10
2017-12-19T09:46:23.241Z,3.10
2017-12-19T09:48:50.707Z,3.10
2017-12-19T09:51:18.146Z,3.10
2017-12-19T09:53:45.623Z,3.00
2017-12-19T09:56:13.080Z,3.00
2017-12-19T09:58:40.525Z,3.00
2017-12-19T10:01:07.982Z,3.10
2017-12-19T10:03:35.456Z,3.10
2017-12-19T10:06:02.914Z,3.10
2017-12-19T10:08:30.372Z,3.00
2017-12-19T10:10:58.622Z,3.00
2017-12-19T10:13:26.091Z,3.00
2017-12-19T10:15:53.544Z,3.10
2017-12-19T10:18:21.705Z,3.10
2017-12-19T10:20:49.284Z,3.20
2017-12-19T10:23:16.739Z,3.20
2017-12-19T10:25:44.190Z,3.10
2017-12-19T10:28:12.580Z,3.00
2017-12-19T10:30:40.041Z,3.10
2017-12-19T10:33:08.303Z,3.10
2017-12-19T10:35:35.806Z,3.10
2017-12-19T10:38:03.227Z,3.20
2017-12-19T10:40:31.467Z,3.30
2017-12-19T10:42:58.949Z,3.30
2017-12-19T10:45:26.414Z,3.30
2017-12-19T10:47:54.704Z,3.30
2017-12-19T10:50:22.491Z,3.30
2017-12-19T10:52:49.967Z,3.40
2017-12-19T10:55:17.440Z,3.40
2017-12-19T10:57:44.915Z,3.40
2017-12-19T11:00:13.163Z,3.40
2017-12-19T11:02:40.619Z,3.40
2017-12-19T11:05:08.082Z,3.40
2017-12-19T11:07:35.553Z,3.40
2017-12-19T11:10:03.019Z,3.40
2017-12-19T11:12:31.275Z,3.50
2017-12-19T11:14:58.732Z,3.50
2017-12-19T11:17:26.199Z,3.50
2017-12-19T11:19:53.655Z,3.50
2017-12-19T11:22:21.120Z,3.50
2017-12-19T11:24:49.339Z,3.50
2017-12-19T11:27:16.807Z,3.50
2017-12-19T11:29:44.283Z,3.50
2017-12-19T11:32:11.741Z,3.60
2017-12-19T11:34:39.204Z,3.60
2017-12-19T11:37:06.703Z,3.60
2017-12-19T11:39:34.207Z,3.60
2017-12-19T11:42:01.711Z,3.70
2017-12-19T11:44:29.159Z,3.70
2017-12-19T11:46:56.619Z,3.60
2017-12-19T11:49:24.078Z,3.70
2017-12-19T11:51:51.554Z,3.80
2017-12-19T11:54:19.052Z,3.70
2017-12-19T11:56:46.451Z,3.70
2017-12-19T11:59:13.910Z,3.80
2017-12-19T12:01:41.381Z,3.80
2017-12-19T12:04:08.834Z,3.90
2017-12-19T12:06:36.306Z,3.90
2017-12-19T12:09:03.755Z,4.00
2017-12-19T12:11:31.227Z,4.10
2017-12-19T12:13:58.695Z,4.10
2017-12-19T12:16:26.161Z,4.10
2017-12-19T12:18:53.608Z,4.10
2017-12-19T12:21:21.072Z,4.10
2017-12-19T12:23:48.530Z,4.10
2017-12-19T12:26:15.987Z,4.10
2017-12-19T12:28:43.446Z,4.10
2017-12-19T12:31:10.903Z,4.00
2017-12-19T12:33:38.361Z,4.00
2017-12-19T12:36:05.815Z,3.90
2017-12-19T12:38:33.278Z,3.90
2017-12-19T12:41:00.735Z,3.90
2017-12-19T12:43:28.955Z,4.00
2017-12-19T12:45:56.417Z,4.00
2017-12-19T12:48:23.892Z,4.00
2017-12-19T12:50:51.342Z,4.10
2017-12-19T12:53:18.794Z,4.10
2017-12-19T12:55:46.499Z,4.10
2017-12-19T12:58:14.719Z,4.00
2017-12-19T13:00:42.176Z,4.00
2017-12-19T13:03:09.644Z,3.90
2017-12-19T13:05:37.107Z,3.80
2017-12-19T13:08:04.723Z,3.80
2017-12-19T13:10:32.180Z,3.80
2017-12-19T13:12:59.640Z,3.80
2017-12-19T13:15:27.100Z,3.80
2017-12-19T13:17:54.557Z,3.80
2017-12-19T13:20:21.999Z,3.80
2017-12-19T13:22:49.454Z,3.70
2017-12-19T13:25:16.925Z,3.80
2017-12-19T13:27:44.366Z,3.80
2017-12-19T13:30:12.666Z,3.80
2017-12-19T13:32:40.118Z,3.80
2017-12-19T13:35:07.579Z,3.80
2017-12-19T13:37:35.036Z,3.70
2017-12-19T13:40:02.503Z,3.70
2017-12-19T13:42:29.946Z,3.70
2017-12-19T13:44:57.407Z,3.70
2017-12-19T13:47:24.848Z,3.60
2017-12-19T13:49:52.317Z,3.70
2017-12-19T13:52:19.783Z,3.60
2017-12-19T13:54:47.246Z,3.50
2017-12-19T13:57:14.705Z,3.40
2017-12-19T13:59:42.170Z,3.40
2017-12-19T14:02:09.637Z,3.40
2017-12-19T14:04:37.098Z,3.40
2017-12-19T14:07:04.554Z,3.40
2017-12-19T14:09:32.013Z,3.40
2017-12-19T14:12:00.251Z,3.40
2017-12-19T14:14:27.714Z,3.40
2017-12-19T14:16:55.175Z,3.40
2017-12-19T14:19:22.630Z,3.30
2017-12-19T14:21:50.098Z,3.30
2017-12-19T14:24:17.542Z,3.30
2017-12-19T14:26:45.012Z,3.30
2017-12-19T14:29:12.459Z,3.20
2017-12-19T14:31:40.743Z,3.30
2017-12-19T14:34:08.198Z,3.30
2017-12-19T14:36:36.023Z,3.30
2017-12-19T14:39:03.481Z,3.30
2017-12-19T14:41:30.952Z,3.20
2017-12-19T14:43:58.416Z,3.20
2017-12-19T14:46:25.888Z,3.20
2017-12-19T14:48:53.355Z,3.20
2017-12-19T14:51:20.855Z,3.20
2017-12-19T14:53:48.311Z,3.10
2017-12-19T14:56:15.774Z,3.10
2017-12-19T14:58:43.235Z,3.10
2017-12-19T15:01:11.457Z,3.20
2017-12-19T15:03:39.695Z,3.20
2017-12-19T15:06:07.149Z,3.10
2017-12-19T15:08:34.606Z,3.20
2017-12-19T15:11:02.098Z,3.10
2017-12-19T15:13:29.541Z,3.10
2017-12-19T15:15:56.996Z,3.10
2017-12-19T15:18:24.454Z,3.00
2017-12-19T15:20:51.923Z,3.10
2017-12-19T15:23:19.380Z,3.00
2017-12-19T15:25:46.836Z,3.00
2017-12-19T15:28:14.311Z,3.00
2017-12-19T15:30:41.763Z,3.00
2017-12-19T15:33:09.229Z,2.90
2017-12-19T15:35:36.686Z,2.90
2017-12-19T15:38:04.136Z,2.90
2017-12-19T15:40:32.368Z,2.90
2017-12-19T15:43:00.600Z,2.90
2017-12-19T15:45:28.920Z,3.00
2017-12-19T15:47:56.393Z,2.90
2017-12-19T15:50:23.838Z,2.90
2017-12-19T15:52:52.069Z,3.00
2017-12-19T15:55:19.608Z,3.00
2017-12-19T15:57:49.162Z,2.90
2017-12-19T16:00:16.856Z,3.00
2017-12-19T16:02:45.179Z,2.90
2017-12-19T16:05:12.698Z,2.90
2017-12-19T16:07:40.951Z,2.90
2017-12-19T16:10:08.410Z,2.90
2017-12-19T16:12:35.870Z,2.90
2017-12-19T16:15:04.128Z,2.90
2017-12-19T16:17:31.602Z,2.90
2017-12-19T16:19:59.073Z,2.90
2017-12-19T16:22:27.286Z,2.90
2017-12-19T16:24:54.774Z,2.80
2017-12-19T16:27:22.235Z,2.90
2017-12-19T16:29:49.743Z,2.90
2017-12-19T16:32:17.171Z,2.90
2017-12-19T16:34:45.408Z,2.90
2017-12-19T16:37:12.903Z,2.90
2017-12-19T16:39:41.352Z,2.80
2017-12-19T16:42:08.824Z,2.80
2017-12-19T16:44:36.282Z,2.80
2017-12-19T16:47:03.751Z,2.80
2017-12-19T16:49:32.007Z,2.80
2017-12-19T16:51:59.474Z,2.80
2017-12-19T16:54:27.698Z,2.80
2017-12-19T16:56:55.201Z,2.80
2017-12-19T16:59:22.669Z,2.90
2017-12-19T17:01:50.916Z,2.80
2017-12-19T17:04:19.169Z,2.80
2017-12-19T17:06:46.629Z,2.90
2017-12-19T17:09:14.082Z,2.90
2017-12-19T17:11:41.593Z,2.80
2017-12-19T17:14:09.835Z,2.90
2017-12-19T17:16:37.333Z,2.90
2017-12-19T17:19:04.861Z,2.90
2017-12-19T17:21:32.359Z,2.80
2017-12-19T17:23:59.815Z,2.80
2017-12-19T17:26:27.314Z,2.80
2017-12-19T17:28:54.826Z,2.70
2017-12-19T17:31:22.280Z,2.70
2017-12-19T17:33:49.745Z,2.70
2017-12-19T17:36:17.219Z,2.70
2017-12-19T17:38:44.713Z,2.80
2017-12-19T17:41:12.175Z,2.90
2017-12-19T17:43:39.666Z,3.00
2017-12-19T17:46:07.347Z,2.90
2017-12-19T17:48:34.803Z,2.90
2017-12-19T17:51:02.266Z,2.90
2017-12-19T17:53:29.954Z,2.90
2017-12-19T17:55:57.464Z,2.90
2017-12-19T17:58:24.902Z,2.90
2017-12-19T18:00:52.418Z,2.90
2017-12-19T18:03:19.867Z,2.90
2017-12-19T18:05:47.328Z,2.90
2017-12-19T18:08:14.796Z,2.90
2017-12-19T18:10:42.271Z,2.80
2017-12-19T18:13:09.774Z,2.80
2017-12-19T18:15:38.506Z,2.80
2017-12-19T18:18:05.963Z,2.70
2017-12-19T18:20:33.425Z,2.70
2017-12-19T18:23:01.646Z,2.70
2017-12-19T18:25:29.101Z,2.70
2017-12-19T18:27:56.567Z,2.70
2017-12-19T18:30:24.073Z,2.70
2017-12-19T18:32:52.345Z,2.70
2017-12-19T18:35:20.575Z,2.70
2017-12-19T18:37:48.055Z,2.70
2017-12-19T18:40:15.554Z,2.70
2017-12-19T18:42:43.064Z,2.80
2017-12-19T18:45:10.622Z,2.70
2017-12-19T18:47:38.086Z,2.70
2017-12-19T18:50:05.593Z,2.70
2017-12-19T18:52:33.106Z,2.70
2017-12-19T18:55:00.552Z,2.70
2017-12-19T18:57:28.024Z,2.70
2017-12-19T18:59:55.529Z,2.70
2017-12-19T19:02:23.647Z,2.60
2017-12-19T19:04:51.226Z,2.60
2017-12-19T19:07:18.763Z,2.70
2017-12-19T19:09:46.329Z,2.70
2017-12-19T19:12:13.854Z,2.70
2017-12-19T19:14:41.303Z,2.60
2017-12-19T19:17:08.873Z,2.60
2017-12-19T19:19:36.482Z,2.60
2017-12-19T19:22:04.019Z,2.60
2017-12-19T19:24:31.582Z,2.60
2017-12-19T19:26:59.174Z,2.50
2017-12-19T19:29:26.627Z,2.50
2017-12-19T19:31:54.887Z,2.50
2017-12-19T19:34:23.107Z,2.50
2017-12-19T19:36:51.323Z,2.50
2017-12-19T19:39:20.406Z,2.50
2017-12-19T19:41:48.307Z,2.50
2017-12-19T19:44:15.804Z,2.50
2017-12-19T19:46:43.583Z,2.50
2017-12-19T19:49:11.322Z,2.50
2017-12-19T19:51:39.925Z,2.50
2017-12-19T19:54:07.518Z,2.50
2017-12-19T19:56:35.794Z,2.50
2017-12-19T19:59:03.419Z,2.50
2017-12-19T20:01:30.932Z,2.50
2017-12-19T20:03:59.210Z,2.50
2017-12-19T20:06:26.718Z,2.60
2017-12-19T20:08:54.221Z,2.60
2017-12-19T20:11:21.786Z,2.60
2017-12-19T20:13:50.038Z,2.60
2017-12-19T20:16:18.302Z,2.60
2017-12-19T20:18:46.581Z,2.60
2017-12-19T20:21:14.862Z,2.60
2017-12-19T20:23:43.202Z,2.60
2017-12-19T20:26:10.695Z,2.50
2017-12-19T20:28:40.222Z,2.50
2017-12-19T20:31:07.794Z,2.50
2017-12-19T20:33:36.456Z,2.50
2017-12-19T20:36:04.718Z,2.50
2017-12-19T20:38:33.071Z,2.50
2017-12-19T20:41:00.569Z,2.50
2017-12-19T20:43:28.078Z,2.50
2017-12-19T20:45:55.601Z,2.40
2017-12-19T20:48:23.861Z,2.40
2017-12-19T20:50:51.363Z,2.40
2017-12-19T20:53:18.849Z,2.40
2017-12-19T20:55:46.352Z,2.40
2017-12-19T20:58:13.846Z,2.40
2017-12-19T21:00:41.630Z,2.40
2017-12-19T21:03:09.265Z,2.40
2017-12-19T21:05:36.892Z,2.40
2017-12-19T21:08:04.475Z,2.40
2017-12-19T21:10:31.956Z,2.40
2017-12-19T21:13:00.267Z,2.40
2017-12-19T21:18:09.806Z,2.40
2017-12-19T21:20:37.404Z,2.40
2017-12-19T21:23:04.922Z,2.40
2017-12-19T21:25:32.494Z,2.40
2017-12-19T21:28:00.140Z,2.40
2017-12-19T21:30:27.740Z,2.40
2017-12-19T21:32:55.236Z,2.30
2017-12-19T21:35:23.575Z,2.30
2017-12-19T21:37:51.050Z,2.30
2017-12-19T21:40:18.550Z,2.30
2017-12-19T21:42:46.067Z,2.30
2017-12-19T21:45:14.459Z,2.20
2017-12-19T21:47:42.074Z,2.20
2017-12-19T21:50:09.543Z,2.30
2017-12-19T21:52:38.848Z,2.30
2017-12-19T21:57:47.746Z,2.20
2017-12-19T22:00:16.198Z,2.30
2017-12-19T22:02:44.486Z,2.30
2017-12-19T22:05:12.816Z,2.30
2017-12-19T22:07:40.322Z,2.30
2017-12-19T22:10:08.586Z,2.30
2017-12-19T22:12:36.174Z,2.30
2017-12-19T22:15:04.651Z,2.40
2017-12-19T22:17:32.124Z,2.40
2017-12-19T22:19:59.763Z,2.40
2017-12-19T22:22:27.347Z,2.30
2017-12-19T22:24:54.905Z,2.30
2017-12-19T22:27:22.488Z,2.30
2017-12-19T22:29:50.314Z,2.30
2017-12-19T22:32:17.827Z,2.30
2017-12-19T22:34:45.276Z,2.30
2017-12-19T22:37:12.735Z,2.30
2017-12-19T22:39:40.260Z,2.30
2017-12-19T22:42:07.714Z,2.30
2017-12-19T22:44:35.319Z,2.30
2017-12-19T22:47:02.895Z,2.40
2017-12-19T22:49:30.421Z,2.30
2017-12-19T22:51:57.936Z,2.30
2017-12-19T22:54:25.441Z,2.30
2017-12-19T22:56:52.890Z,2.40
2017-12-19T22:59:20.416Z,2.30
2017-12-19T23:01:47.907Z,2.40
2017-12-19T23:04:15.592Z,2.40
2017-12-19T23:06:44.466Z,2.40
2017-12-19T23:09:11.965Z,2.40
2017-12-19T23:11:39.414Z,2.40
2017-12-19T23:14:06.989Z,2.30
2017-12-19T23:16:34.492Z,2.40
2017-12-19T23:19:01.942Z,2.30
2017-12-19T23:21:29.406Z,2.30
2017-12-19T23:23:56.863Z,2.40
2017-12-19T23:26:24.306Z,2.40
2017-12-19T23:28:51.810Z,2.30
2017-12-19T23:31:19.254Z,2.30
2017-12-19T23:33:46.711Z,2.30
2017-12-19T23:36:14.162Z,2.30
2017-12-19T23:38:42.396Z,2.40
2017-12-19T23:41:09.895Z,2.40
2017-12-19T23:43:38.170Z,2.30
2017-12-19T23:46:06.379Z,2.30
2017-12-19T23:48:33.888Z,2.30
2017-12-19T23:51:01.379Z,2.30
2017-12-19T23:53:28.815Z,2.40
2017-12-19T23:55:57.031Z,2.40
2017-12-19T23:58:24.495Z,2.40
